sensor_id;sensor_type;location;lat;lon;timestamp;temperature;humidity
74458;SHT31;62896;51.032;3.712;2022-09-29T00:01:17;9.3;85
74458;SHT31;62896;51.032;3.712;2022-09-29T00:04:37;9.3;85
74458;SHT31;62896;51.032;3.712;2022-09-29T00:07:57;9.3;86
74458;SHT31;62896;51.032;3.712;2022-09-29T00:11:17;9.2;86
74458;SHT31;62896;51.032;3.712;2022-09-29T00:14:37;9.2;86
74458;SHT31;62896;51.032;3.712;2022-09-29T00:17:57;9.2;86
74458;SHT31;62896;51.032;3.712;2022-09-29T00:21:17;9;86
74458;SHT31;62896;51.032;3.712;2022-09-29T00:24:37;9;86
74458;SHT31;62896;51.032;3.712;2022-09-29T00:27:57;9;87
74458;SHT31;62896;51.032;3.712;2022-09-29T00:31:17;8.9;87
74458;SHT31;62896;51.032;3.712;2022-09-29T00:34:37;8.9;87
74458;SHT31;62896;51.032;3.712;2022-09-29T00:37:57;8.9;87
74458;SHT31;62896;51.032;3.712;2022-09-29T00:41:18;8.9;87
74458;SHT31;62896;51.032;3.712;2022-09-29T00:45:41;8.9;87
74458;SHT31;62896;51.032;3.712;2022-09-29T00:48:01;8.9;87
74458;SHT31;62896;51.032;3.712;2022-09-29T00:51:17;8.9;87
74458;SHT31;62896;51.032;3.712;2022-09-29T00:54:38;8.9;87
74458;SHT31;62896;51.032;3.712;2022-09-29T00:57:58;8.9;87
74458;SHT31;62896;51.032;3.712;2022-09-29T01:01:17;8.9;87
74458;SHT31;62896;51.032;3.712;2022-09-29T01:04:37;8.9;87
74458;SHT31;62896;51.032;3.712;2022-09-29T01:07:57;8.9;87
74458;SHT31;62896;51.032;3.712;2022-09-29T01:11:17;8.8;87
74458;SHT31;62896;51.032;3.712;2022-09-29T01:14:37;8.8;87
74458;SHT31;62896;51.032;3.712;2022-09-29T01:17:57;8.8;87
74458;SHT31;62896;51.032;3.712;2022-09-29T01:21:21;8.8;87
74458;SHT31;62896;51.032;3.712;2022-09-29T01:25:12;8.8;87
74458;SHT31;62896;51.032;3.712;2022-09-29T01:28:03;8.8;87
74458;SHT31;62896;51.032;3.712;2022-09-29T01:31:19;8.8;87
74458;SHT31;62896;51.032;3.712;2022-09-29T01:34:39;8.8;87
74458;SHT31;62896;51.032;3.712;2022-09-29T01:38:01;8.8;87
74458;SHT31;62896;51.032;3.712;2022-09-29T01:41:19;8.8;87
74458;SHT31;62896;51.032;3.712;2022-09-29T01:44:38;8.8;87
74458;SHT31;62896;51.032;3.712;2022-09-29T01:47:58;8.8;87
74458;SHT31;62896;51.032;3.712;2022-09-29T01:51:19;8.8;87
74458;SHT31;62896;51.032;3.712;2022-09-29T01:54:40;8.8;87
74458;SHT31;62896;51.032;3.712;2022-09-29T01:57:57;8.8;87
74458;SHT31;62896;51.032;3.712;2022-09-29T02:01:17;8.8;87
74458;SHT31;62896;51.032;3.712;2022-09-29T02:04:39;8.8;87
74458;SHT31;62896;51.032;3.712;2022-09-29T02:08:01;8.8;88
74458;SHT31;62896;51.032;3.712;2022-09-29T02:11:17;8.8;88
74458;SHT31;62896;51.032;3.712;2022-09-29T02:14:38;8.8;88
74458;SHT31;62896;51.032;3.712;2022-09-29T02:17:59;8.8;88
74458;SHT31;62896;51.032;3.712;2022-09-29T02:21:17;8.8;88
74458;SHT31;62896;51.032;3.712;2022-09-29T02:24:37;8.8;88
74458;SHT31;62896;51.032;3.712;2022-09-29T02:27:57;8.8;88
74458;SHT31;62896;51.032;3.712;2022-09-29T02:31:17;8.7;88
74458;SHT31;62896;51.032;3.712;2022-09-29T02:34:38;8.7;88
74458;SHT31;62896;51.032;3.712;2022-09-29T02:38:00;8.7;88
74458;SHT31;62896;51.032;3.712;2022-09-29T02:41:21;8.7;88
74458;SHT31;62896;51.032;3.712;2022-09-29T02:44:42;8.7;88
74458;SHT31;62896;51.032;3.712;2022-09-29T02:48:02;8.7;89
74458;SHT31;62896;51.032;3.712;2022-09-29T02:51:18;8.7;89
74458;SHT31;62896;51.032;3.712;2022-09-29T02:54:40;8.7;89
74458;SHT31;62896;51.032;3.712;2022-09-29T02:57:58;8.7;89
74458;SHT31;62896;51.032;3.712;2022-09-29T03:01:17;8.7;89
74458;SHT31;62896;51.032;3.712;2022-09-29T03:04:37;8.7;89
74458;SHT31;62896;51.032;3.712;2022-09-29T03:07:57;8.7;89
74458;SHT31;62896;51.032;3.712;2022-09-29T03:11:17;8.6;89
74458;SHT31;62896;51.032;3.712;2022-09-29T03:14:37;8.6;89
74458;SHT31;62896;51.032;3.712;2022-09-29T03:17:57;8.6;90
74458;SHT31;62896;51.032;3.712;2022-09-29T03:21:17;8.4;90
74458;SHT31;62896;51.032;3.712;2022-09-29T03:24:37;8.4;90
74458;SHT31;62896;51.032;3.712;2022-09-29T03:27:57;8.4;90
74458;SHT31;62896;51.032;3.712;2022-09-29T03:31:17;8.3;90
74458;SHT31;62896;51.032;3.712;2022-09-29T03:34:37;8.3;90
74458;SHT31;62896;51.032;3.712;2022-09-29T03:37:57;8.3;90
74458;SHT31;62896;51.032;3.712;2022-09-29T03:41:17;8.2;90
74458;SHT31;62896;51.032;3.712;2022-09-29T03:44:37;8.2;90
74458;SHT31;62896;51.032;3.712;2022-09-29T03:47:57;8.2;91
74458;SHT31;62896;51.032;3.712;2022-09-29T03:51:17;8.2;91
74458;SHT31;62896;51.032;3.712;2022-09-29T03:54:37;8.2;91
74458;SHT31;62896;51.032;3.712;2022-09-29T03:57:57;8.2;91
74458;SHT31;62896;51.032;3.712;2022-09-29T04:01:17;8.3;91
74458;SHT31;62896;51.032;3.712;2022-09-29T04:04:37;8.3;91
74458;SHT31;62896;51.032;3.712;2022-09-29T04:07:57;8.3;91
74458;SHT31;62896;51.032;3.712;2022-09-29T04:11:17;8.4;91
74458;SHT31;62896;51.032;3.712;2022-09-29T04:14:37;8.4;91
74458;SHT31;62896;51.032;3.712;2022-09-29T04:17:57;8.4;90
74458;SHT31;62896;51.032;3.712;2022-09-29T04:21:17;8.5;90
74458;SHT31;62896;51.032;3.712;2022-09-29T04:24:37;8.5;90
74458;SHT31;62896;51.032;3.712;2022-09-29T04:27:57;8.5;90
74458;SHT31;62896;51.032;3.712;2022-09-29T04:31:17;8.5;90
74458;SHT31;62896;51.032;3.712;2022-09-29T04:34:37;8.5;90
74458;SHT31;62896;51.032;3.712;2022-09-29T04:37:57;8.5;90
74458;SHT31;62896;51.032;3.712;2022-09-29T04:41:17;8.6;90
74458;SHT31;62896;51.032;3.712;2022-09-29T04:44:37;8.6;90
74458;SHT31;62896;51.032;3.712;2022-09-29T04:47:57;8.6;90
74458;SHT31;62896;51.032;3.712;2022-09-29T04:51:17;8.6;90
74458;SHT31;62896;51.032;3.712;2022-09-29T04:54:37;8.6;90
74458;SHT31;62896;51.032;3.712;2022-09-29T04:57:57;8.6;90
74458;SHT31;62896;51.032;3.712;2022-09-29T05:01:17;8.6;90
74458;SHT31;62896;51.032;3.712;2022-09-29T05:04:37;8.6;90
74458;SHT31;62896;51.032;3.712;2022-09-29T05:07:57;8.6;90
74458;SHT31;62896;51.032;3.712;2022-09-29T05:11:17;8.6;90
74458;SHT31;62896;51.032;3.712;2022-09-29T05:14:37;8.6;90
74458;SHT31;62896;51.032;3.712;2022-09-29T05:17:59;8.6;91
74458;SHT31;62896;51.032;3.712;2022-09-29T05:21:17;8.5;91
74458;SHT31;62896;51.032;3.712;2022-09-29T05:24:37;8.5;91
74458;SHT31;62896;51.032;3.712;2022-09-29T05:27:57;8.5;91
74458;SHT31;62896;51.032;3.712;2022-09-29T05:31:17;8.5;91
74458;SHT31;62896;51.032;3.712;2022-09-29T05:34:37;8.5;91
74458;SHT31;62896;51.032;3.712;2022-09-29T05:37:57;8.5;91
74458;SHT31;62896;51.032;3.712;2022-09-29T05:41:17;8.5;91
74458;SHT31;62896;51.032;3.712;2022-09-29T05:44:37;8.5;91
74458;SHT31;62896;51.032;3.712;2022-09-29T05:47:57;8.5;91
74458;SHT31;62896;51.032;3.712;2022-09-29T05:51:18;8.4;91
74458;SHT31;62896;51.032;3.712;2022-09-29T05:54:37;8.4;91
74458;SHT31;62896;51.032;3.712;2022-09-29T05:57:57;8.4;92
74458;SHT31;62896;51.032;3.712;2022-09-29T06:01:18;8.3;92
74458;SHT31;62896;51.032;3.712;2022-09-29T06:04:37;8.3;92
74458;SHT31;62896;51.032;3.712;2022-09-29T06:07:57;8.3;91
74458;SHT31;62896;51.032;3.712;2022-09-29T06:11:17;8.5;91
74458;SHT31;62896;51.032;3.712;2022-09-29T06:14:37;8.5;91
74458;SHT31;62896;51.032;3.712;2022-09-29T06:17:57;8.5;91
74458;SHT31;62896;51.032;3.712;2022-09-29T06:21:18;8.7;91
74458;SHT31;62896;51.032;3.712;2022-09-29T06:24:37;8.7;91
74458;SHT31;62896;51.032;3.712;2022-09-29T06:27:57;8.7;90
74458;SHT31;62896;51.032;3.712;2022-09-29T06:31:18;8.8;90
74458;SHT31;62896;51.032;3.712;2022-09-29T06:34:37;8.8;90
74458;SHT31;62896;51.032;3.712;2022-09-29T06:37:57;8.8;90
74458;SHT31;62896;51.032;3.712;2022-09-29T06:41:17;8.9;90
74458;SHT31;62896;51.032;3.712;2022-09-29T06:44:37;8.9;90
74458;SHT31;62896;51.032;3.712;2022-09-29T06:47:57;8.9;89
74458;SHT31;62896;51.032;3.712;2022-09-29T06:51:17;9.3;89
74458;SHT31;62896;51.032;3.712;2022-09-29T06:54:37;9.3;89
74458;SHT31;62896;51.032;3.712;2022-09-29T06:57:57;9.3;88
74458;SHT31;62896;51.032;3.712;2022-09-29T07:01:17;9.4;88
74458;SHT31;62896;51.032;3.712;2022-09-29T07:04:37;9.4;88
74458;SHT31;62896;51.032;3.712;2022-09-29T07:07:57;9.4;88
74458;SHT31;62896;51.032;3.712;2022-09-29T07:11:17;9.5;88
74458;SHT31;62896;51.032;3.712;2022-09-29T07:14:37;9.5;88
74458;SHT31;62896;51.032;3.712;2022-09-29T07:17:57;9.5;88
74458;SHT31;62896;51.032;3.712;2022-09-29T07:21:17;9.7;88
74458;SHT31;62896;51.032;3.712;2022-09-29T07:24:37;9.7;88
74458;SHT31;62896;51.032;3.712;2022-09-29T07:27:57;9.7;87
74458;SHT31;62896;51.032;3.712;2022-09-29T07:31:17;10.2;87
74458;SHT31;62896;51.032;3.712;2022-09-29T07:34:37;10.2;87
74458;SHT31;62896;51.032;3.712;2022-09-29T07:37:57;10.2;85
74458;SHT31;62896;51.032;3.712;2022-09-29T07:41:17;10.5;85
74458;SHT31;62896;51.032;3.712;2022-09-29T07:44:37;10.5;85
74458;SHT31;62896;51.032;3.712;2022-09-29T07:47:57;10.5;83
74458;SHT31;62896;51.032;3.712;2022-09-29T07:51:17;10.7;83
74458;SHT31;62896;51.032;3.712;2022-09-29T07:54:37;10.7;83
74458;SHT31;62896;51.032;3.712;2022-09-29T07:57:57;10.7;83
74458;SHT31;62896;51.032;3.712;2022-09-29T08:01:17;10.9;83
74458;SHT31;62896;51.032;3.712;2022-09-29T08:04:37;10.9;83
74458;SHT31;62896;51.032;3.712;2022-09-29T08:07:57;10.9;83
74458;SHT31;62896;51.032;3.712;2022-09-29T08:11:17;11.3;83
74458;SHT31;62896;51.032;3.712;2022-09-29T08:14:37;11.3;83
74458;SHT31;62896;51.032;3.712;2022-09-29T08:17:57;11.3;81
74458;SHT31;62896;51.032;3.712;2022-09-29T08:21:17;11.5;81
74458;SHT31;62896;51.032;3.712;2022-09-29T08:24:37;11.5;81
74458;SHT31;62896;51.032;3.712;2022-09-29T08:27:57;11.5;80
74458;SHT31;62896;51.032;3.712;2022-09-29T08:31:17;11.9;80
74458;SHT31;62896;51.032;3.712;2022-09-29T08:34:37;11.9;80
74458;SHT31;62896;51.032;3.712;2022-09-29T08:37:57;11.9;78
74458;SHT31;62896;51.032;3.712;2022-09-29T08:41:24;12.1;78
74458;SHT31;62896;51.032;3.712;2022-09-29T08:44:37;12.1;78
74458;SHT31;62896;51.032;3.712;2022-09-29T08:48:00;12.1;78
74458;SHT31;62896;51.032;3.712;2022-09-29T08:51:20;12.4;78
74458;SHT31;62896;51.032;3.712;2022-09-29T08:54:39;12.4;78
74458;SHT31;62896;51.032;3.712;2022-09-29T08:57:57;12.4;77
74458;SHT31;62896;51.032;3.712;2022-09-29T09:01:20;12.7;77
74458;SHT31;62896;51.032;3.712;2022-09-29T09:04:41;12.7;77
74458;SHT31;62896;51.032;3.712;2022-09-29T09:07:59;12.7;76
74458;SHT31;62896;51.032;3.712;2022-09-29T09:11:22;12.8;76
74458;SHT31;62896;51.032;3.712;2022-09-29T09:14:42;12.8;76
74458;SHT31;62896;51.032;3.712;2022-09-29T09:18:00;12.8;75
74458;SHT31;62896;51.032;3.712;2022-09-29T09:21:17;13.1;75
74458;SHT31;62896;51.032;3.712;2022-09-29T09:24:38;13.1;75
74458;SHT31;62896;51.032;3.712;2022-09-29T09:28:02;13.1;73
74458;SHT31;62896;51.032;3.712;2022-09-29T09:31:19;13.4;73
74458;SHT31;62896;51.032;3.712;2022-09-29T09:34:37;13.4;73
74458;SHT31;62896;51.032;3.712;2022-09-29T09:37:58;13.4;72
74458;SHT31;62896;51.032;3.712;2022-09-29T09:41:18;13.7;72
74458;SHT31;62896;51.032;3.712;2022-09-29T09:44:37;13.7;72
74458;SHT31;62896;51.032;3.712;2022-09-29T09:47:58;13.7;71
74458;SHT31;62896;51.032;3.712;2022-09-29T09:51:22;14;71
74458;SHT31;62896;51.032;3.712;2022-09-29T09:54:38;14;71
74458;SHT31;62896;51.032;3.712;2022-09-29T09:58:00;14;69
74458;SHT31;62896;51.032;3.712;2022-09-29T10:01:17;14.2;69
74458;SHT31;62896;51.032;3.712;2022-09-29T10:04:37;14.2;69
74458;SHT31;62896;51.032;3.712;2022-09-29T10:07:57;14.2;67
74458;SHT31;62896;51.032;3.712;2022-09-29T10:11:22;14.4;67
74458;SHT31;62896;51.032;3.712;2022-09-29T10:14:37;14.4;67
74458;SHT31;62896;51.032;3.712;2022-09-29T10:18:00;14.4;67
74458;SHT31;62896;51.032;3.712;2022-09-29T10:21:18;14.7;67
74458;SHT31;62896;51.032;3.712;2022-09-29T10:24:37;14.7;67
74458;SHT31;62896;51.032;3.712;2022-09-29T10:27:57;14.7;66
74458;SHT31;62896;51.032;3.712;2022-09-29T10:31:18;14.8;66
74458;SHT31;62896;51.032;3.712;2022-09-29T10:34:37;14.8;66
74458;SHT31;62896;51.032;3.712;2022-09-29T10:37:58;14.8;64
74458;SHT31;62896;51.032;3.712;2022-09-29T10:41:17;14.9;64
74458;SHT31;62896;51.032;3.712;2022-09-29T10:44:37;14.9;64
74458;SHT31;62896;51.032;3.712;2022-09-29T10:48:13;14.9;62
74458;SHT31;62896;51.032;3.712;2022-09-29T10:51:18;15.5;62
74458;SHT31;62896;51.032;3.712;2022-09-29T10:54:38;15.5;62
74458;SHT31;62896;51.032;3.712;2022-09-29T10:57:58;15.5;61
74458;SHT31;62896;51.032;3.712;2022-09-29T11:01:17;15.3;61
74458;SHT31;62896;51.032;3.712;2022-09-29T11:04:37;15.3;61
74458;SHT31;62896;51.032;3.712;2022-09-29T11:07:57;15.3;60
74458;SHT31;62896;51.032;3.712;2022-09-29T11:11:18;15.9;60
74458;SHT31;62896;51.032;3.712;2022-09-29T11:14:39;15.9;60
74458;SHT31;62896;51.032;3.712;2022-09-29T11:17:57;15.9;58
74458;SHT31;62896;51.032;3.712;2022-09-29T11:21:25;16.5;58
74458;SHT31;62896;51.032;3.712;2022-09-29T11:24:41;16.5;58
74458;SHT31;62896;51.032;3.712;2022-09-29T11:28:01;16.5;57
74458;SHT31;62896;51.032;3.712;2022-09-29T11:31:22;16;57
74458;SHT31;62896;51.032;3.712;2022-09-29T11:34:42;16;57
74458;SHT31;62896;51.032;3.712;2022-09-29T11:38:01;16;60
74458;SHT31;62896;51.032;3.712;2022-09-29T11:41:20;15;60
74458;SHT31;62896;51.032;3.712;2022-09-29T11:44:44;15;60
74458;SHT31;62896;51.032;3.712;2022-09-29T11:51:19;14.4;65
74458;SHT31;62896;51.032;3.712;2022-09-29T11:54:41;14.4;65
74458;SHT31;62896;51.032;3.712;2022-09-29T11:58:00;14.4;65
74458;SHT31;62896;51.032;3.712;2022-09-29T12:01:25;14.2;65
74458;SHT31;62896;51.032;3.712;2022-09-29T12:04:39;14.2;65
74458;SHT31;62896;51.032;3.712;2022-09-29T12:08:00;14.2;67
74458;SHT31;62896;51.032;3.712;2022-09-29T12:11:19;14.1;67
74458;SHT31;62896;51.032;3.712;2022-09-29T12:14:38;14.1;67
74458;SHT31;62896;51.032;3.712;2022-09-29T12:17:58;14.1;67
74458;SHT31;62896;51.032;3.712;2022-09-29T12:21:20;14.1;67
74458;SHT31;62896;51.032;3.712;2022-09-29T12:24:37;14.1;67
74458;SHT31;62896;51.032;3.712;2022-09-29T12:27:57;14.1;67
74458;SHT31;62896;51.032;3.712;2022-09-29T12:31:19;14.2;67
74458;SHT31;62896;51.032;3.712;2022-09-29T12:34:38;14.2;67
74458;SHT31;62896;51.032;3.712;2022-09-29T12:37:59;14.2;67
74458;SHT31;62896;51.032;3.712;2022-09-29T12:41:18;14.3;67
74458;SHT31;62896;51.032;3.712;2022-09-29T12:44:39;14.3;67
74458;SHT31;62896;51.032;3.712;2022-09-29T12:48:00;14.3;66
74458;SHT31;62896;51.032;3.712;2022-09-29T12:51:19;14.2;66
74458;SHT31;62896;51.032;3.712;2022-09-29T12:54:38;14.2;66
74458;SHT31;62896;51.032;3.712;2022-09-29T12:57:58;14.2;64
74458;SHT31;62896;51.032;3.712;2022-09-29T13:01:19;14.5;64
74458;SHT31;62896;51.032;3.712;2022-09-29T13:04:48;14.5;64
74458;SHT31;62896;51.032;3.712;2022-09-29T13:18:01;15.8;59
74458;SHT31;62896;51.032;3.712;2022-09-29T13:21:18;18;59
74458;SHT31;62896;51.032;3.712;2022-09-29T13:24:41;18;59
74458;SHT31;62896;51.032;3.712;2022-09-29T13:27:57;18;56
74458;SHT31;62896;51.032;3.712;2022-09-29T13:31:18;18.5;56
74458;SHT31;62896;51.032;3.712;2022-09-29T13:34:37;18.5;56
74458;SHT31;62896;51.032;3.712;2022-09-29T13:38:00;18.5;54
74458;SHT31;62896;51.032;3.712;2022-09-29T13:41:31;19.4;54
74458;SHT31;62896;51.032;3.712;2022-09-29T13:44:37;19.4;54
74458;SHT31;62896;51.032;3.712;2022-09-29T13:47:58;19.4;53
74458;SHT31;62896;51.032;3.712;2022-09-29T13:51:21;18.4;53
74458;SHT31;62896;51.032;3.712;2022-09-29T13:54:38;18.4;53
74458;SHT31;62896;51.032;3.712;2022-09-29T13:57:57;18.4;56
74458;SHT31;62896;51.032;3.712;2022-09-29T14:01:27;17;56
74458;SHT31;62896;51.032;3.712;2022-09-29T14:04:41;17;56
74458;SHT31;62896;51.032;3.712;2022-09-29T14:08:06;17;63
74458;SHT31;62896;51.032;3.712;2022-09-29T14:11:19;15.8;63
74458;SHT31;62896;51.032;3.712;2022-09-29T14:14:37;15.8;63
74458;SHT31;62896;51.032;3.712;2022-09-29T14:17:57;15.8;69
74458;SHT31;62896;51.032;3.712;2022-09-29T14:21:44;15;69
74458;SHT31;62896;51.032;3.712;2022-09-29T14:24:41;15;69
74458;SHT31;62896;51.032;3.712;2022-09-29T14:27:57;15;73
74458;SHT31;62896;51.032;3.712;2022-09-29T14:31:19;14.4;73
74458;SHT31;62896;51.032;3.712;2022-09-29T14:34:38;14.4;73
74458;SHT31;62896;51.032;3.712;2022-09-29T14:37:58;14.4;75
74458;SHT31;62896;51.032;3.712;2022-09-29T14:41:22;14.3;75
74458;SHT31;62896;51.032;3.712;2022-09-29T14:44:37;14.3;75
74458;SHT31;62896;51.032;3.712;2022-09-29T14:47:58;14.3;77
74458;SHT31;62896;51.032;3.712;2022-09-29T14:51:18;14;77
74458;SHT31;62896;51.032;3.712;2022-09-29T14:54:39;14;77
74458;SHT31;62896;51.032;3.712;2022-09-29T14:58:01;14;78
74458;SHT31;62896;51.032;3.712;2022-09-29T15:01:19;13.8;78
74458;SHT31;62896;51.032;3.712;2022-09-29T15:04:37;13.8;78
74458;SHT31;62896;51.032;3.712;2022-09-29T15:07:57;13.8;76
74458;SHT31;62896;51.032;3.712;2022-09-29T15:11:25;14.9;76
74458;SHT31;62896;51.032;3.712;2022-09-29T15:14:37;14.9;76
74458;SHT31;62896;51.032;3.712;2022-09-29T15:17:57;14.9;63
74458;SHT31;62896;51.032;3.712;2022-09-29T15:21:18;18.5;63
74458;SHT31;62896;51.032;3.712;2022-09-29T15:24:43;18.5;63
74458;SHT31;62896;51.032;3.712;2022-09-29T15:27:58;18.5;63
74458;SHT31;62896;51.032;3.712;2022-09-29T15:31:17;15.9;63
74458;SHT31;62896;51.032;3.712;2022-09-29T15:34:36;15.9;63
74458;SHT31;62896;51.032;3.712;2022-09-29T15:37:58;15.9;70
74458;SHT31;62896;51.032;3.712;2022-09-29T15:41:17;14.8;70
74458;SHT31;62896;51.032;3.712;2022-09-29T15:44:36;14.8;70
74458;SHT31;62896;51.032;3.712;2022-09-29T15:47:57;14.8;71
74458;SHT31;62896;51.032;3.712;2022-09-29T15:51:16;14.8;71
74458;SHT31;62896;51.032;3.712;2022-09-29T15:54:37;14.8;71
74458;SHT31;62896;51.032;3.712;2022-09-29T15:57:57;14.8;70
74458;SHT31;62896;51.032;3.712;2022-09-29T16:01:16;14.8;70
74458;SHT31;62896;51.032;3.712;2022-09-29T16:04:36;14.8;70
74458;SHT31;62896;51.032;3.712;2022-09-29T16:07:59;14.8;70
74458;SHT31;62896;51.032;3.712;2022-09-29T16:11:18;14.9;70
74458;SHT31;62896;51.032;3.712;2022-09-29T16:14:36;14.9;70
74458;SHT31;62896;51.032;3.712;2022-09-29T16:17:57;14.9;72
74458;SHT31;62896;51.032;3.712;2022-09-29T16:21:17;14.8;72
74458;SHT31;62896;51.032;3.712;2022-09-29T16:24:37;14.8;72
74458;SHT31;62896;51.032;3.712;2022-09-29T16:27:57;14.8;73
74458;SHT31;62896;51.032;3.712;2022-09-29T16:31:17;15;73
74458;SHT31;62896;51.032;3.712;2022-09-29T16:34:36;15;73
74458;SHT31;62896;51.032;3.712;2022-09-29T16:37:56;15;73
74458;SHT31;62896;51.032;3.712;2022-09-29T16:41:18;15.1;73
74458;SHT31;62896;51.032;3.712;2022-09-29T16:44:39;15.1;73
74458;SHT31;62896;51.032;3.712;2022-09-29T16:47:57;15.1;73
74458;SHT31;62896;51.032;3.712;2022-09-29T16:51:18;14.9;73
74458;SHT31;62896;51.032;3.712;2022-09-29T16:54:38;14.9;73
74458;SHT31;62896;51.032;3.712;2022-09-29T16:57:57;14.9;74
74458;SHT31;62896;51.032;3.712;2022-09-29T17:01:16;14.6;74
74458;SHT31;62896;51.032;3.712;2022-09-29T17:04:36;14.6;74
74458;SHT31;62896;51.032;3.712;2022-09-29T17:07:58;14.6;76
74458;SHT31;62896;51.032;3.712;2022-09-29T17:11:16;14.3;76
74458;SHT31;62896;51.032;3.712;2022-09-29T17:14:36;14.3;76
74458;SHT31;62896;51.032;3.712;2022-09-29T17:17:56;14.3;78
74458;SHT31;62896;51.032;3.712;2022-09-29T17:21:17;14;78
74458;SHT31;62896;51.032;3.712;2022-09-29T19:07:57;11.6;88
74458;SHT31;62896;51.032;3.712;2022-09-29T19:11:17;11.3;88
74458;SHT31;62896;51.032;3.712;2022-09-29T19:14:36;11.3;88
74458;SHT31;62896;51.032;3.712;2022-09-29T19:17:56;11.3;89
74458;SHT31;62896;51.032;3.712;2022-09-29T19:21:16;11.1;89
74458;SHT31;62896;51.032;3.712;2022-09-29T19:24:36;11.1;89
74458;SHT31;62896;51.032;3.712;2022-09-29T19:27:57;11.1;90
74458;SHT31;62896;51.032;3.712;2022-09-29T19:31:18;11;90
74458;SHT31;62896;51.032;3.712;2022-09-29T19:34:37;11;90
74458;SHT31;62896;51.032;3.712;2022-09-29T19:37:56;11;90
74458;SHT31;62896;51.032;3.712;2022-09-29T19:41:17;10.8;90
74458;SHT31;62896;51.032;3.712;2022-09-29T19:44:37;10.8;90
74458;SHT31;62896;51.032;3.712;2022-09-29T19:47:57;10.8;90
74458;SHT31;62896;51.032;3.712;2022-09-29T19:51:17;10.7;90
74458;SHT31;62896;51.032;3.712;2022-09-29T19:54:38;10.7;90
74458;SHT31;62896;51.032;3.712;2022-09-29T19:57:56;10.7;90
74458;SHT31;62896;51.032;3.712;2022-09-29T20:01:16;10.5;90
74458;SHT31;62896;51.032;3.712;2022-09-29T20:04:37;10.5;90
74458;SHT31;62896;51.032;3.712;2022-09-29T20:07:56;10.5;91
74458;SHT31;62896;51.032;3.712;2022-09-29T20:11:16;10.3;91
74458;SHT31;62896;51.032;3.712;2022-09-29T20:14:36;10.3;91
74458;SHT31;62896;51.032;3.712;2022-09-29T20:17:56;10.3;91
74458;SHT31;62896;51.032;3.712;2022-09-29T20:21:16;10.2;91
74458;SHT31;62896;51.032;3.712;2022-09-29T20:24:36;10.2;91
74458;SHT31;62896;51.032;3.712;2022-09-29T20:27:56;10.2;91
74458;SHT31;62896;51.032;3.712;2022-09-29T20:31:17;10.2;91
74458;SHT31;62896;51.032;3.712;2022-09-29T20:34:36;10.2;91
74458;SHT31;62896;51.032;3.712;2022-09-29T20:37:56;10.2;92
74458;SHT31;62896;51.032;3.712;2022-09-29T20:41:16;10.1;92
74458;SHT31;62896;51.032;3.712;2022-09-29T20:44:36;10.1;92
74458;SHT31;62896;51.032;3.712;2022-09-29T20:47:56;10.1;92
74458;SHT31;62896;51.032;3.712;2022-09-29T20:51:16;9.9;92
74458;SHT31;62896;51.032;3.712;2022-09-29T20:54:36;9.9;92
74458;SHT31;62896;51.032;3.712;2022-09-29T20:57:56;9.9;92
74458;SHT31;62896;51.032;3.712;2022-09-29T21:01:17;9.8;92
74458;SHT31;62896;51.032;3.712;2022-09-29T21:04:36;9.8;92
74458;SHT31;62896;51.032;3.712;2022-09-29T21:07:56;9.8;92
74458;SHT31;62896;51.032;3.712;2022-09-29T21:11:17;9.7;92
74458;SHT31;62896;51.032;3.712;2022-09-29T21:14:36;9.7;92
74458;SHT31;62896;51.032;3.712;2022-09-29T21:17:56;9.7;92
74458;SHT31;62896;51.032;3.712;2022-09-29T21:21:16;9.5;92
74458;SHT31;62896;51.032;3.712;2022-09-29T21:24:36;9.5;92
74458;SHT31;62896;51.032;3.712;2022-09-29T21:27:57;9.5;92
74458;SHT31;62896;51.032;3.712;2022-09-29T21:31:17;9.4;92
74458;SHT31;62896;51.032;3.712;2022-09-29T21:34:37;9.4;92
74458;SHT31;62896;51.032;3.712;2022-09-29T21:37:57;9.4;92
74458;SHT31;62896;51.032;3.712;2022-09-29T21:41:18;9.4;92
74458;SHT31;62896;51.032;3.712;2022-09-29T21:44:37;9.4;92
74458;SHT31;62896;51.032;3.712;2022-09-29T21:47:57;9.4;92
74458;SHT31;62896;51.032;3.712;2022-09-29T21:51:17;9.3;92
74458;SHT31;62896;51.032;3.712;2022-09-29T21:54:37;9.3;92
74458;SHT31;62896;51.032;3.712;2022-09-29T21:57:57;9.3;92
74458;SHT31;62896;51.032;3.712;2022-09-29T22:01:17;9.2;92
74458;SHT31;62896;51.032;3.712;2022-09-29T22:04:37;9.2;92
74458;SHT31;62896;51.032;3.712;2022-09-29T22:07:57;9.2;92
74458;SHT31;62896;51.032;3.712;2022-09-29T22:11:17;9.1;92
74458;SHT31;62896;51.032;3.712;2022-09-29T22:14:37;9.1;92
74458;SHT31;62896;51.032;3.712;2022-09-29T22:17:57;9.1;92
74458;SHT31;62896;51.032;3.712;2022-09-29T22:21:18;9;92
74458;SHT31;62896;51.032;3.712;2022-09-29T22:24:37;9;92
74458;SHT31;62896;51.032;3.712;2022-09-29T22:27:57;9;93
74458;SHT31;62896;51.032;3.712;2022-09-29T22:31:17;9.1;93
74458;SHT31;62896;51.032;3.712;2022-09-29T22:34:37;9.1;93
74458;SHT31;62896;51.032;3.712;2022-09-29T22:37:57;9.1;92
74458;SHT31;62896;51.032;3.712;2022-09-29T22:41:17;8.9;92
74458;SHT31;62896;51.032;3.712;2022-09-29T22:44:37;8.9;92
74458;SHT31;62896;51.032;3.712;2022-09-29T22:47:57;8.9;93
74458;SHT31;62896;51.032;3.712;2022-09-29T22:51:17;8.7;93
74458;SHT31;62896;51.032;3.712;2022-09-29T22:54:37;8.7;93
74458;SHT31;62896;51.032;3.712;2022-09-29T22:57:57;8.7;93
74458;SHT31;62896;51.032;3.712;2022-09-29T23:01:17;8.7;93
74458;SHT31;62896;51.032;3.712;2022-09-29T23:04:37;8.7;93
74458;SHT31;62896;51.032;3.712;2022-09-29T23:07:57;8.7;93
74458;SHT31;62896;51.032;3.712;2022-09-29T23:11:17;8.6;93
74458;SHT31;62896;51.032;3.712;2022-09-29T23:14:37;8.6;93
74458;SHT31;62896;51.032;3.712;2022-09-29T23:17:57;8.6;93
74458;SHT31;62896;51.032;3.712;2022-09-29T23:21:17;8.5;93
74458;SHT31;62896;51.032;3.712;2022-09-29T23:24:37;8.5;93
74458;SHT31;62896;51.032;3.712;2022-09-29T23:27:57;8.5;93
74458;SHT31;62896;51.032;3.712;2022-09-29T23:31:17;8.5;93
74458;SHT31;62896;51.032;3.712;2022-09-29T23:34:37;8.5;93
74458;SHT31;62896;51.032;3.712;2022-09-29T23:37:57;8.5;93
74458;SHT31;62896;51.032;3.712;2022-09-29T23:41:17;8.4;93
74458;SHT31;62896;51.032;3.712;2022-09-29T23:44:37;8.4;93
74458;SHT31;62896;51.032;3.712;2022-09-29T23:47:57;8.4;93
74458;SHT31;62896;51.032;3.712;2022-09-29T23:51:17;8.3;93
74458;SHT31;62896;51.032;3.712;2022-09-29T23:54:37;8.3;93
74458;SHT31;62896;51.032;3.712;2022-09-29T23:57:57;8.3;93
